Monday, September 22, 2014, 2:09 AM EDT
Back to Local

KMPO, Mt Pocono Pocono Mountains

Location: Pocono Summit, PA, United States Lat: 41.133
Local Time: 2:09 AM EDT ( 6:09 GMT) Lon: -75.383
Time Zone: US/Eastern Elev: 1915 ft

Show me the last for .
Show Decoded

2014-09-22 01:53 METAR KMPO 220553Z AUTO 29011G19KT 10SM FEW029 14/ A2973 RMK AO2 SLP056 60021
                 T0144 10189 20144 51008 TSNO $ =
2014-09-22 01:05 METAR KMPO 220505Z AUTO 30007KT 9SM FEW008 15/ A2972 RMK AO2 T0150 TSNO $ =
2014-09-22 00:53 METAR KMPO 220453Z AUTO 31008KT 9SM CLR 15/ A2972 RMK AO2 SLP055 T0150 402440117
                 TSNO $ =
2014-09-21 23:53 METAR KMPO 220353Z AUTO 29009KT 10SM SCT035 BKN047 OVC080 16/ A2972 RMK AO2
                 RAE0256 SLP055 P0000 T0156 TSNO $ =
2014-09-21 22:53 METAR KMPO 220253Z AUTO 28007KT 8SM -RA SCT043 BKN050 OVC100 16/ A2970 RMK AO2
                 SLP049 P0006 60021 T0161 50007 TSNO $ =
2014-09-21 22:11 METAR KMPO 220211Z AUTO 31008KT 9SM -RA FEW020 BKN031 OVC060 17/ A2970 RMK AO2
                 P0005 T0167 TSNO $ =
2014-09-21 22:03 METAR KMPO 220203Z AUTO 32008KT 2SM -RA FEW020 BKN031 OVC060 17/ A2970 RMK AO2
                 P0005 T0167 TSNO $ =
2014-09-21 21:53 METAR KMPO 220153Z AUTO 30007KT 1 1/2SM +RA SCT020 BKN029 OVC050 17/ A2971 RMK
                 AO2 VIS 1V3 RAB40 SLP051 P0015 T0167 TSNO $ =
2014-09-21 21:45 METAR KMPO 220145Z AUTO 32009KT 2 1/2SM +RA SCT020 BKN037 OVC048 17/ A2970 RMK
                 AO2 VIS 1 1/2V5 RAB40 P0005 T0172 TSNO $ =
2014-09-21 21:39 METAR KMPO 220139Z AUTO 32009KT 8SM BKN020 BKN036 OVC110 18/ A2970 RMK AO2 T0183
                 TSNO $ =
2014-09-21 20:53 METAR KMPO 220053Z AUTO 25004KT 10SM FEW040 FEW120 18/ A2968 RMK AO2 SLP042
                 T0183 TSNO $ =
2014-09-21 19:53 METAR KMPO 212353Z AUTO 22005KT 10SM CLR 19/ A2968 RMK AO2 SLP044 60000 T0189
                 10244 20183 55006 TSNO $ =
2014-09-21 18:53 METAR KMPO 212253Z AUTO 21004KT 10SM CLR 20/14 A2968 RMK AO2 SLP042 T02000144
                 TSNO =
2014-09-21 17:53 METAR KMPO 212153Z AUTO 18006KT 10SM CLR 22/15 A2968 RMK AO2 RAB43E52 SLP042
                 P0000 T02170150 TSNO =
2014-09-21 16:53 METAR KMPO 212053Z AUTO 20007KT 10SM BKN120 22/14 A2970 RMK AO2 SLP049 T02220144
                 56030 TSNO =
2014-09-21 15:53 METAR KMPO 211953Z AUTO 19008KT 10SM CLR 23/14 A2972 RMK AO2 SLP054 T02330139
                 TSNO =
2014-09-21 14:53 METAR KMPO 211853Z AUTO 23011KT 10SM CLR 24/14 A2975 RMK AO2 SLP066 T02390139
                 TSNO =
2014-09-21 13:53 METAR KMPO 211753Z AUTO 20009KT 10SM CLR 24/12 A2979 RMK AO2 SLP078 T02440122
                 10244 20144 58029 TSNO =
2014-09-21 12:53 METAR KMPO 211653Z AUTO 23008KT 10SM CLR 23/11 A2983 RMK AO2 SLP094 T02280111
                 TSNO =
2014-09-21 11:53 METAR KMPO 211553Z AUTO 20008KT 10SM CLR 22/13 A2986 RMK AO2 SLP106 T02170133
                 TSNO =
2014-09-21 10:53 METAR KMPO 211453Z AUTO 18007KT 10SM CLR 21/14 A2988 RMK AO2 SLP112 T02060139
                 58015 TSNO =
2014-09-21 09:53 METAR KMPO 211353Z AUTO 22006KT 10SM CLR 19/13 A2991 RMK AO2 SLP122 T01940133
                 TSNO $ =
2014-09-21 08:53 METAR KMPO 211253Z AUTO 28004KT 8SM CLR 16/14 A2993 RMK AO2 SLP128 T01610139
                 TSNO $ =
2014-09-21 08:23 METAR KMPO 211223Z AUTO 30003KT 3SM BR SCT002 15/14 A2993 RMK AO2 T01500139 TSNO
                 $ =
2014-09-21 07:53 METAR KMPO 211153Z AUTO 23004KT 2 1/2SM BR OVC002 14/13 A2993 RMK AO2 SLP131
                 T01440133 10144 20117 58004 TSNO $ =
2014-09-21 07:03 METAR KMPO 211103Z AUTO 26003KT 2 1/2SM BR OVC003 14/13 A2995 RMK AO2 T01440133
                 TSNO $ =
2014-09-21 06:53 METAR KMPO 211053Z AUTO 27004KT 3SM BR OVC003 14/13 A2995 RMK AO2 SLP138
                 T01440133 TSNO $ =
2014-09-21 06:04 METAR KMPO 211004Z AUTO 20004KT 4SM BR OVC002 14/13 A2995 RMK AO2 T01440133 TSNO
                 $ =
2014-09-21 05:53 METAR KMPO 210953Z AUTO VRB03KT 2SM BR OVC002 14/13 A2994 RMK AO2 SLP133
                 T01440133 TSNO $ =
2014-09-21 05:42 METAR KMPO 210942Z AUTO 22003KT 1/2SM FG VV002 14/13 A2994 RMK AO2 T01440133
                 TSNO $ =
2014-09-21 05:30 METAR KMPO 210930Z AUTO 00000KT 1/4SM FG VV002 14/13 A2995 RMK AO2 T01440133
                 TSNO $ =
2014-09-21 05:15 METAR KMPO 210915Z AUTO 00000KT 3/4SM BR OVC002 14/13 A2994 RMK AO2 T01390133
                 TSNO $ =
2014-09-21 04:58 METAR KMPO 210858Z AUTO 16004KT 2SM BR OVC002 14/13 A2995 RMK AO2 T01390128 TSNO
                 $ =
2014-09-21 04:53 METAR KMPO 210853Z AUTO 19003KT 3/4SM BR VV002 13/13 A2995 RMK AO2 SLP136
                 T01330128 56031 TSNO $ =
2014-09-21 04:42 METAR KMPO 210842Z AUTO 00000KT 1/4SM FG VV002 13/12 A2995 RMK AO2 T01330122
                 TSNO $ =
2014-09-21 04:34 METAR KMPO 210834Z AUTO 27003KT 1/2SM FG VV002 14/13 A2995 RMK AO2 T01390128
                 TSNO $ =
2014-09-21 04:23 METAR KMPO 210823Z AUTO 00000KT 1 1/4SM BR OVC002 14/13 A2996 RMK AO2 T01390133
                 TSNO $ =
2014-09-21 03:53 METAR KMPO 210753Z AUTO 00000KT 1/2SM FG VV002 14/13 A2998 RMK AO2 SLP144
                 T01440133 TSNO $ =
2014-09-21 03:35 METAR KMPO 210735Z AUTO 00000KT 1/2SM FG VV002 14/13 A2998 RMK AO2 T01390133
                 TSNO $ =
2014-09-21 03:04 METAR KMPO 210704Z AUTO 16003KT 3/4SM BR BKN003 13/12 A3000 RMK AO2 T01330122
                 TSNO $ =
2014-09-21 03:00 METAR KMPO 210700Z AUTO 00000KT 1 3/4SM BR SCT004 BKN007 13/12 A3000 RMK AO2
                 T01280122 TSNO $ =
2014-09-21 02:38 METAR KMPO 210638Z AUTO 00000KT 1 1/2SM BR BKN006 13/12 A3002 RMK AO2 T01280122
                 TSNO $ =
2014-09-21 02:30 METAR KMPO 210630Z AUTO 00000KT 3/4SM BR VV005 13/12 A3002 RMK AO2 T01280122
                 TSNO $ =
2014-09-21 02:12 METAR KMPO 210612Z AUTO 00000KT 1/4SM FG VV005 13/12 A3004 RMK AO2 T01330122
                 TSNO $ =

Support USWX by starting your Amazon purchase here.